Time;durP1;ratioP1;P1;durP2;ratioP2;P2;SDS_P1;SDS_P2;PMS_P1;PMS_P2;Temp;Humidity;BMP_temperature;BMP_pressure;BME280_temperature;BME280_humidity;BME280_pressure;Samples;Min_cycle;Max_cycle;Signal;HPM_P1;HPM_P2
2023/07/17 00:02:24;;;;;;;3.80;2.60;;;;;;;;;;5030514;28;20463;-84
2023/07/17 00:04:50;;;;;;;4.80;2.40;;;;;;;;;;5035280;28;20444;-84
2023/07/17 00:07:16;;;;;;;3.67;1.80;;;;;;;;;;5033119;28;20439;-85
2023/07/17 00:09:43;;;;;;;3.03;2.43;;;;;;;;;;5032076;28;20957;-86
2023/07/17 00:12:09;;;;;;;6.83;2.70;;;17.30;99.90;;;;;;5027852;28;20474;-85
2023/07/17 00:14:35;;;;;;;8.03;2.40;;;;;;;;;;5035360;28;20541;-86
2023/07/17 00:17:01;;;;;;;5.83;1.90;;;;;;;;;;5032570;28;20428;-85
2023/07/17 00:19:27;;;;;;;5.40;2.70;;;;;;;;;;5035371;28;20488;-86
2023/07/17 00:21:53;;;;;;;7.60;2.90;;;;;;;;;;5035925;28;21626;-86
2023/07/17 00:24:18;;;;;;;6.83;2.70;;;;;;;;;;5033934;28;20589;-84
2023/07/17 00:26:44;;;;;;;6.00;3.00;;;;;;;;;;5035348;28;20443;-84
2023/07/17 00:29:24;;;;;;;3.63;1.50;;;18.10;99.90;;;;;;5036283;28;20450;-84
2023/07/17 00:31:51;;;;;;;3.80;2.67;;;18.20;99.90;;;;;;5035263;28;20462;-85
2023/07/17 00:34:18;;;;;;;6.73;2.40;;;18.30;99.90;;;;;;5034832;28;20801;-85
2023/07/17 00:36:44;;;;;;;8.63;2.80;;;;;;;;;;5038177;28;20450;-84
2023/07/17 00:39:10;;;;;;;6.90;2.53;;;;;;;;;;5036941;28;20439;-84
2023/07/17 00:41:36;;;;;;;5.80;2.20;;;;;;;;;;5037212;28;20492;-86
2023/07/17 00:44:03;;;;;;;3.77;1.90;;;;;;;;;;5034264;28;20747;-83
2023/07/17 00:46:29;;;;;;;3.90;2.23;;;;;;;;;;5042232;28;20475;-85
2023/07/17 00:48:55;;;;;;;3.80;2.60;;;;;;;;;;5043007;28;20439;-82
2023/07/17 00:51:21;;;;;;;5.53;2.37;;;;;;;;;;5044691;28;20455;-86
2023/07/17 00:53:47;;;;;;;5.63;2.80;;;;;;;;;;5043267;28;20463;-84
2023/07/17 00:56:13;;;;;;;5.93;2.43;;;;;;;;;;5044783;28;20435;-85
2023/07/17 00:58:39;;;;;;;3.70;2.50;;;;;;;;;;5039170;28;20450;-84
2023/07/17 01:01:05;;;;;;;3.13;2.80;;;;;;;;;;5030243;28;20561;-82
2023/07/17 01:03:31;;;;;;;5.67;2.60;;;;;;;;;;5041689;28;20451;-83
2023/07/17 01:05:57;;;;;;;2.70;2.30;;;;;;;;;;5034660;28;20432;-85
2023/07/17 01:08:23;;;;;;;3.77;1.93;;;;;;;;;;5034226;28;20439;-84
2023/07/17 01:10:50;;;;;;;11.03;2.40;;;;;;;;;;5026273;28;20565;-86
2023/07/17 01:13:16;;;;;;;4.90;2.27;;;19.10;99.90;;;;;;5032251;28;20493;-84
2023/07/17 01:15:42;;;;;;;8.90;2.07;;;;;;;;;;5030162;28;20481;-83
2023/07/17 01:18:08;;;;;;;3.90;2.20;;;;;;;;;;5032273;28;21350;-85
2023/07/17 01:20:34;;;;;;;7.03;2.07;;;;;;;;;;5047218;28;20443;-85
2023/07/17 01:23:03;;;;;;;5.93;3.77;;;19.30;99.90;;;;;;5043561;28;20455;-83
2023/07/17 01:25:29;;;;;;;3.40;2.33;;;;;;;;;;5033522;28;20431;-84
2023/07/17 01:27:55;;;;;;;5.20;2.80;;;;;;;;;;5029834;28;21436;-84
2023/07/17 01:30:21;;;;;;;4.70;2.23;;;;;;;;;;5033590;28;23458;-85
2023/07/17 01:32:47;;;;;;;6.40;2.20;;;;;;;;;;5051886;28;20593;-86
2023/07/17 01:35:13;;;;;;;5.10;2.50;;;;;;;;;;5036191;28;20472;-84
2023/07/17 01:37:39;;;;;;;5.60;2.77;;;;;;;;;;5034885;28;20528;-84
2023/07/17 01:40:07;;;;;;;4.30;2.50;;;19.10;99.90;;;;;;5036126;28;20526;-84
2023/07/17 01:42:33;;;;;;;4.50;2.73;;;;;;;;;;5033063;28;20682;-85
2023/07/17 01:44:59;;;;;;;4.60;2.57;;;;;;;;;;5034956;28;20523;-83
2023/07/17 01:47:25;;;;;;;6.77;2.17;;;;;;;;;;5038332;28;20756;-85
2023/07/17 01:49:51;;;;;;;5.13;2.80;;;;;;;;;;5037708;28;20496;-85
2023/07/17 01:52:17;;;;;;;9.30;2.47;;;;;;;;;;5051012;28;20444;-83
2023/07/17 01:54:43;;;;;;;4.83;2.13;;;;;;;;;;5037805;28;20483;-83
2023/07/17 01:57:09;;;;;;;3.63;2.10;;;;;;;;;;5040424;28;20524;-84
2023/07/17 01:59:35;;;;;;;5.07;2.40;;;;;;;;;;5037278;28;20483;-83
2023/07/17 02:02:01;;;;;;;5.30;3.80;;;;;;;;;;5037934;28;20489;-84
2023/07/17 02:04:27;;;;;;;3.60;2.33;;;;;;;;;;5031130;28;20915;-86
2023/07/17 02:06:53;;;;;;;2.83;2.10;;;;;;;;;;5041094;28;20911;-85
2023/07/17 02:09:20;;;;;;;5.07;2.10;;;;;;;;;;5039388;28;20442;-84
2023/07/17 02:11:46;;;;;;;4.83;2.70;;;;;;;;;;5033391;28;20498;-85
2023/07/17 02:14:12;;;;;;;4.47;2.83;;;;;;;;;;5026284;28;20455;-85
2023/07/17 02:16:38;;;;;;;6.13;2.73;;;;;;;;;;5032000;28;20451;-85
2023/07/17 02:19:03;;;;;;;3.77;2.30;;;;;;;;;;5027911;28;20520;-82
2023/07/17 02:21:29;;;;;;;4.20;2.07;;;;;;;;;;5035930;28;20470;-85
2023/07/17 02:23:57;;;;;;;3.87;3.00;;;18.20;99.90;;;;;;5043647;28;20470;-84
2023/07/17 02:26:23;;;;;;;11.43;2.87;;;;;;;;;;5034014;28;20534;-85
2023/07/17 02:28:49;;;;;;;3.90;2.37;;;;;;;;;;5035230;28;20974;-84
2023/07/17 02:31:15;;;;;;;2.97;2.20;;;;;;;;;;5038437;28;20467;-83
2023/07/17 02:33:41;;;;;;;3.70;2.30;;;;;;;;;;5034488;28;20463;-84
2023/07/17 02:36:07;;;;;;;3.17;2.37;;;;;;;;;;5031336;28;20442;-84
2023/07/17 02:38:33;;;;;;;3.07;2.57;;;;;;;;;;5051494;28;20519;-84
2023/07/17 02:41:00;;;;;;;5.10;2.40;;;18.00;99.90;;;;;;5041224;28;20550;-84
2023/07/17 02:43:27;;;;;;;9.90;3.00;;;;;;;;;;5043667;28;20509;-85
2023/07/17 02:45:53;;;;;;;3.70;2.47;;;;;;;;;;5041797;28;20439;-84
2023/07/17 02:48:18;;;;;;;4.03;2.30;;;;;;;;;;5039100;28;20444;-85
2023/07/17 02:50:44;;;;;;;5.33;2.17;;;;;;;;;;5036979;28;20997;-84
2023/07/17 02:53:11;;;;;;;4.33;2.47;;;;;;;;;;5035229;28;20474;-84
2023/07/17 02:55:37;;;;;;;4.83;2.57;;;;;;;;;;5042806;28;20431;-84
2023/07/17 02:58:04;;;;;;;2.53;1.83;;;;;;;;;;5028269;28;20435;-85
2023/07/17 03:00:30;;;;;;;4.40;2.40;;;;;;;;;;5049298;28;20443;-84
2023/07/17 03:02:56;;;;;;;4.10;2.63;;;;;;;;;;5050708;28;21028;-86
2023/07/17 03:05:22;;;;;;;3.73;2.43;;;;;;;;;;5036445;28;21704;-84
2023/07/17 03:07:48;;;;;;;5.90;2.53;;;;;;;;;;5036341;28;20434;-86
2023/07/17 03:10:14;;;;;;;3.00;2.70;;;;;;;;;;5034265;28;20610;-86
2023/07/17 03:12:41;;;;;;;5.70;3.07;;;;;;;;;;5044359;28;20489;-84
2023/07/17 03:15:08;;;;;;;4.53;2.43;;;18.00;99.90;;;;;;5042390;28;20526;-84
2023/07/17 03:17:34;;;;;;;6.70;2.67;;;;;;;;;;5035452;28;20435;-85
2023/07/17 03:20:00;;;;;;;4.00;2.83;;;;;;;;;;5057826;28;20493;-85
2023/07/17 03:22:29;;;;;;;4.30;3.07;;;;;;;;;;5039201;28;20451;-85
2023/07/17 03:24:55;;;;;;;5.07;2.70;;;;;;;;;;5038833;28;21215;-84
2023/07/17 03:27:21;;;;;;;3.50;2.50;;;;;;;;;;5039778;28;21115;-84
2023/07/17 03:29:47;;;;;;;6.43;2.90;;;;;;;;;;5045346;28;20542;-85
2023/07/17 03:32:13;;;;;;;3.40;2.57;;;;;;;;;;5033888;28;20611;-84
2023/07/17 03:34:39;;;;;;;3.40;2.37;;;;;;;;;;5050140;28;20834;-85
2023/07/17 03:37:05;;;;;;;3.00;1.90;;;;;;;;;;5033891;28;20439;-85
2023/07/17 03:39:31;;;;;;;3.83;2.20;;;;;;;;;;5035725;28;20439;-84
2023/07/17 03:41:57;;;;;;;4.67;2.93;;;;;;;;;;5032911;28;20549;-85
2023/07/17 03:44:23;;;;;;;4.63;2.90;;;;;;;;;;5034960;28;20467;-85
2023/07/17 03:46:49;;;;;;;11.50;2.93;;;;;;;;;;5036463;28;20511;-87
2023/07/17 03:49:15;;;;;;;6.40;2.50;;;;;;;;;;5036867;28;20442;-86
2023/07/17 03:51:41;;;;;;;4.83;3.23;;;;;;;;;;5036563;28;20854;-85
2023/07/17 03:54:07;;;;;;;7.30;2.87;;;;;;;;;;5041371;28;20455;-85
2023/07/17 03:56:35;;;;;;;6.00;2.70;;;;;;;;;;5043355;28;21276;-86
2023/07/17 03:59:01;;;;;;;5.90;3.00;;;;;;;;;;5039703;28;20423;-86
2023/07/17 04:01:27;;;;;;;6.57;3.27;;;;;;;;;;5035380;28;21030;-85
2023/07/17 04:03:53;;;;;;;4.50;3.03;;;;;;;;;;5034577;28;20463;-86
2023/07/17 04:06:19;;;;;;;4.17;2.07;;;;;;;;;;5033338;28;20443;-84
2023/07/17 04:08:45;;;;;;;4.97;3.10;;;;;;;;;;5035768;28;20477;-85
2023/07/17 04:11:11;;;;;;;4.57;2.53;;;;;;;;;;5045965;28;20498;-84
2023/07/17 04:13:38;;;;;;;4.47;2.90;;;;;;;;;;5024615;28;20452;-85
2023/07/17 04:16:05;;;;;;;2.97;2.57;;;;;;;;;;5029834;28;20528;-86
2023/07/17 04:18:31;;;;;;;3.43;2.60;;;;;;;;;;5042197;28;20474;-84
2023/07/17 04:20:57;;;;;;;4.70;2.23;;;;;;;;;;5029790;28;20446;-83
2023/07/17 04:23:23;;;;;;;5.93;2.10;;;;;;;;;;5026406;28;20459;-86
2023/07/17 04:25:49;;;;;;;8.53;2.43;;;18.50;99.90;;;;;;5021061;28;20462;-85
2023/07/17 04:28:15;;;;;;;2.83;2.23;;;;;;;;;;5018904;28;20547;-84
2023/07/17 04:30:41;;;;;;;8.40;3.67;;;;;;;;;;5024595;28;20481;-83
2023/07/17 04:33:07;;;;;;;5.50;2.40;;;;;;;;;;5028463;28;20455;-83
2023/07/17 04:35:37;;;;;;;3.30;1.97;;;20.10;99.90;;;;;;5019378;28;22725;-85
2023/07/17 04:38:03;;;;;;;7.60;3.27;;;;;;;;;;5025077;28;20491;-84
2023/07/17 04:40:29;;;;;;;5.47;3.07;;;;;;;;;;5047341;28;20496;-84
2023/07/17 04:42:55;;;;;;;9.07;2.87;;;;;;;;;;5031985;28;20463;-85
2023/07/17 04:45:22;;;;;;;6.50;2.23;;;21.00;99.90;;;;;;5025687;28;20439;-84
2023/07/17 04:47:48;;;;;;;3.00;2.50;;;;;;;;;;5030171;28;20431;-85
2023/07/17 04:50:14;;;;;;;5.67;3.10;;;;;;;;;;5029110;28;20439;-84
2023/07/17 04:52:41;;;;;;;7.23;2.43;;;;;;;;;;5025735;28;20505;-83
2023/07/17 04:55:07;;;;;;;7.80;2.93;;;24.30;99.90;;;;;;5031579;28;20443;-85
2023/07/17 04:57:32;;;;;;;10.23;2.23;;;25.30;99.90;;;;;;5033973;28;20484;-85
2023/07/17 04:59:58;;;;;;;5.10;2.43;;;;;;;;;;5030789;28;20550;-84
2023/07/17 05:02:24;;;;;;;4.23;2.60;;;;;;;;;;5029270;28;20996;-86
2023/07/17 05:04:50;;;;;;;5.50;3.10;;;;;;;;;;5034489;28;20468;-85
2023/07/17 05:07:16;;;;;;;5.07;2.83;;;;;;;;;;5039899;28;21003;-84
2023/07/17 05:09:42;;;;;;;6.63;2.80;;;;;;;;;;5038371;28;20528;-83
2023/07/17 05:12:08;;;;;;;6.93;3.10;;;;;;;;;;5058464;28;20476;-86
2023/07/17 05:14:34;;;;;;;6.10;3.13;;;;;;;;;;5045426;28;20894;-85
2023/07/17 05:17:00;;;;;;;4.83;2.47;;;;;;;;;;5043748;28;20435;-86
2023/07/17 05:19:26;;;;;;;8.23;2.60;;;;;;;;;;5040042;28;20431;-86
2023/07/17 05:21:52;;;;;;;5.90;2.70;;;;;;;;;;5042441;28;20445;-86
2023/07/17 05:24:18;;;;;;;5.27;2.70;;;;;;;;;;5043665;28;20525;-86
2023/07/17 05:26:44;;;;;;;9.50;2.30;;;;;;;;;;5045214;28;20437;-84
2023/07/17 05:29:09;;;;;;;4.80;2.90;;;;;;;;;;5033731;28;20441;-84
2023/07/17 05:31:35;;;;;;;6.03;3.07;;;;;;;;;;5026102;28;20554;-85
2023/07/17 05:34:01;;;;;;;4.73;2.53;;;;;;;;;;5040959;28;20622;-85
2023/07/17 05:36:27;;;;;;;8.13;3.40;;;;;;;;;;5031478;28;20440;-86
2023/07/17 05:38:53;;;;;;;8.13;3.87;;;;;;;;;;5036391;28;20437;-85
2023/07/17 05:41:19;;;;;;;7.23;3.10;;;;;;;;;;5036822;28;20450;-85
2023/07/17 05:43:45;;;;;;;4.13;2.60;;;;;;;;;;5031319;28;20487;-86
2023/07/17 05:46:11;;;;;;;7.43;3.03;;;;;;;;;;5035613;28;20663;-84
2023/07/17 05:48:37;;;;;;;6.00;3.73;;;;;;;;;;5031928;28;21099;-86
2023/07/17 05:51:03;;;;;;;8.90;3.50;;;;;;;;;;5031646;28;20472;-84
2023/07/17 05:53:29;;;;;;;6.10;2.93;;;;;;;;;;5035569;28;20458;-85
2023/07/17 05:55:55;;;;;;;6.90;3.67;;;;;;;;;;5047321;28;20454;-87
2023/07/17 05:58:21;;;;;;;5.50;3.27;;;;;;;;;;5031784;28;20438;-85
2023/07/17 06:00:47;;;;;;;6.83;3.33;;;;;;;;;;5033541;28;20550;-86
2023/07/17 06:03:13;;;;;;;4.13;2.20;;;;;;;;;;5050670;28;20590;-86
2023/07/17 06:05:39;;;;;;;5.03;3.00;;;;;;;;;;5031002;28;20523;-85
2023/07/17 06:08:06;;;;;;;5.43;2.70;;;;;;;;;;5033523;28;20426;-85
2023/07/17 06:10:32;;;;;;;4.30;2.37;;;;;;;;;;5026593;28;20479;-86
2023/07/17 06:12:58;;;;;;;6.53;3.23;;;;;;;;;;5040358;28;20489;-86
2023/07/17 06:15:23;;;;;;;5.30;3.10;;;;;;;;;;5036629;28;20493;-86
2023/07/17 06:17:49;;;;;;;5.90;3.17;;;;;;;;;;5035098;28;20427;-86
2023/07/17 06:20:16;;;;;;;3.83;2.40;;;;;;;;;;5052327;28;20445;-85
2023/07/17 06:22:42;;;;;;;6.00;3.03;;;;;;;;;;5032009;28;20463;-86
2023/07/17 06:25:08;;;;;;;5.27;2.30;;;;;;;;;;5052628;28;20448;-85
2023/07/17 06:27:34;;;;;;;2.97;2.40;;;31.80;61.40;;;;;;5040308;28;20458;-85
2023/07/17 06:30:00;;;;;;;3.20;2.47;;;;;;;;;;5042683;28;20487;-87
2023/07/17 06:32:27;;;;;;;8.83;3.40;;;;;;;;;;5039373;28;20475;-86
2023/07/17 06:34:53;;;;;;;9.80;2.50;;;;;;;;;;5034394;28;21264;-85
2023/07/17 06:37:19;;;;;;;6.07;2.80;;;;;;;;;;5027991;28;20483;-85
2023/07/17 06:39:44;;;;;;;5.53;2.60;;;;;;;;;;5036346;28;20489;-84
2023/07/17 06:42:10;;;;;;;8.10;3.63;;;;;;;;;;5042585;28;20587;-86
2023/07/17 06:44:36;;;;;;;3.60;2.93;;;;;;;;;;5042529;28;20978;-85
2023/07/17 06:47:02;;;;;;;5.27;2.83;;;;;;;;;;5045341;28;20520;-83
2023/07/17 06:49:28;;;;;;;2.50;2.30;;;;;;;;;;5036905;28;20463;-85
2023/07/17 06:51:54;;;;;;;4.20;2.70;;;;;;;;;;5037473;28;20482;-85
2023/07/17 06:54:20;;;;;;;6.63;3.20;;;;;;;;;;5032213;28;20579;-86
2023/07/17 06:56:46;;;;;;;7.47;3.10;;;;;;;;;;5035257;28;20421;-86
2023/07/17 06:59:12;;;;;;;2.33;1.90;;;;;;;;;;5023295;28;20448;-85
2023/07/17 07:01:38;;;;;;;6.50;3.37;;;;;;;;;;5043488;28;20443;-85
2023/07/17 07:04:04;;;;;;;5.10;3.00;;;;;;;;;;5032343;28;20448;-83
2023/07/17 07:06:30;;;;;;;6.33;3.00;;;36.40;49.60;;;;;;5030349;28;20479;-84
2023/07/17 07:08:56;;;;;;;12.03;3.70;;;;;;;;;;5031406;28;20512;-86
2023/07/17 07:11:22;;;;;;;7.33;3.20;;;;;;;;;;5034566;28;20470;-84
2023/07/17 07:13:48;;;;;;;7.17;2.93;;;;;;;;;;5037862;28;20203;-85
2023/07/17 07:16:14;;;;;;;4.00;3.37;;;;;;;;;;5032737;28;21022;-86
2023/07/17 07:18:40;;;;;;;5.47;3.27;;;;;;;;;;5043859;28;20444;-86
2023/07/17 07:21:06;;;;;;;6.77;3.50;;;;;;;;;;5035369;28;20425;-84
2023/07/17 07:23:32;;;;;;;6.63;3.23;;;;;;;;;;5037507;28;20830;-84
2023/07/17 07:25:58;;;;;;;7.00;3.60;;;;;;;;;;5030470;28;20442;-85
2023/07/17 07:28:24;;;;;;;5.30;2.50;;;;;;;;;;5030797;28;20431;-86
2023/07/17 07:31:01;;;;;;;11.40;3.17;;;36.40;63.30;;;;;;5033263;28;20480;-86
2023/07/17 07:33:27;;;;;;;6.90;3.80;;;;;;;;;;5030618;28;20472;-85
2023/07/17 07:35:53;;;;;;;5.43;3.47;;;;;;;;;;5030420;28;22298;-86
2023/07/17 07:38:19;;;;;;;5.17;3.70;;;;;;;;;;5036672;28;20444;-86
2023/07/17 07:40:45;;;;;;;10.00;3.33;;;;;;;;;;5033949;28;20446;-87
2023/07/17 07:43:11;;;;;;;5.03;3.87;;;;;;;;;;5034009;28;20511;-85
2023/07/17 07:45:37;;;;;;;5.43;3.43;;;;;;;;;;5027597;28;21199;-86
2023/07/17 07:48:03;;;;;;;5.17;3.30;;;;;;;;;;5037800;28;20429;-87
2023/07/17 07:50:29;;;;;;;6.43;4.50;;;;;;;;;;5028947;28;20514;-85
2023/07/17 07:52:55;;;;;;;5.80;4.20;;;;;;;;;;5032526;28;20459;-86
2023/07/17 07:55:22;;;;;;;6.00;3.87;;;;;;;;;;5031227;28;21013;-84
2023/07/17 07:57:50;;;;;;;5.50;3.53;;;35.70;45.90;;;;;;5045376;28;20447;-86
2023/07/17 08:00:16;;;;;;;5.83;3.83;;;36.20;51.30;;;;;;5030878;28;20996;-87
2023/07/17 08:02:42;;;;;;;5.67;3.60;;;;;;;;;;5031547;28;20466;-85
2023/07/17 08:05:09;;;;;;;5.57;4.10;;;33.60;44.80;;;;;;5040229;28;20430;-85
2023/07/17 08:07:35;;;;;;;8.17;3.40;;;;;;;;;;5032488;28;21662;-85
2023/07/17 08:10:01;;;;;;;7.80;4.50;;;;;;;;;;5046934;28;20443;-85
2023/07/17 08:12:27;;;;;;;7.37;4.30;;;;;;;;;;5033830;28;20483;-85
2023/07/17 08:14:53;;;;;;;7.83;3.87;;;;;;;;;;5028633;28;20437;-85
2023/07/17 08:17:19;;;;;;;8.90;4.10;;;;;;;;;;5029745;28;20452;-84
2023/07/17 08:19:45;;;;;;;7.47;3.73;;;;;;;;;;5029976;28;20465;-84
2023/07/17 08:22:11;;;;;;;11.73;4.10;;;;;;;;;;5033846;28;20430;-87
2023/07/17 08:24:38;;;;;;;6.70;4.17;;;;;;;;;;5033536;28;20428;-86
2023/07/17 08:27:04;;;;;;;6.33;4.70;;;;;;;;;;5028544;28;20933;-84
2023/07/17 08:29:30;;;;;;;9.03;4.70;;;;;;;;;;5032555;28;20476;-85
2023/07/17 08:31:56;;;;;;;5.87;3.13;;;;;;;;;;5034110;28;20553;-86
2023/07/17 08:34:23;;;;;;;6.77;4.60;;;;;;;;;;5030079;28;21263;-85
2023/07/17 08:36:49;;;;;;;8.40;4.17;;;;;;;;;;5030860;28;20436;-85
2023/07/17 08:39:15;;;;;;;10.83;3.80;;;;;;;;;;5029974;28;21414;-86
2023/07/17 08:41:44;;;;;;;8.50;4.23;;;30.50;47.80;;;;;;5033820;28;20454;-84
2023/07/17 08:44:12;;;;;;;4.93;3.93;;;31.50;49.00;;;;;;5035446;28;20570;-84
2023/07/17 08:46:38;;;;;;;7.90;4.33;;;;;;;;;;5031014;28;20452;-84
2023/07/17 08:49:05;;;;;;;6.30;3.63;;;30.10;50.00;;;;;;5034858;28;20447;-85
2023/07/17 08:51:31;;;;;;;11.03;4.97;;;;;;;;;;5035171;28;20507;-84
2023/07/17 08:53:57;;;;;;;4.80;3.70;;;;;;;;;;5034123;28;20532;-84
2023/07/17 08:56:24;;;;;;;3.90;3.40;;;30.60;53.00;;;;;;5034203;28;20431;-84
2023/07/17 08:58:54;;;;;;;10.30;4.43;;;29.60;51.00;;;;;;5034242;28;20443;-86
2023/07/17 09:01:20;;;;;;;7.40;4.57;;;;;;;;;;5023638;28;20509;-84
2023/07/17 09:03:46;;;;;;;5.83;4.50;;;;;;;;;;5025914;28;22642;-84
2023/07/17 09:06:14;;;;;;;8.03;4.30;;;28.80;51.90;;;;;;5033942;28;20445;-85
2023/07/17 09:08:40;;;;;;;7.30;4.20;;;;;;;;;;5035970;28;21159;-86
2023/07/17 09:11:07;;;;;;;6.50;4.27;;;29.60;48.60;;;;;;5037277;28;20496;-85
2023/07/17 09:13:40;;;;;;;7.70;4.23;;;31.10;50.10;;;;;;5034859;28;20497;-84
2023/07/17 09:16:21;;;;;;;5.70;3.43;;;33.00;48.10;;;;;;5025948;28;20444;-86
2023/07/17 09:18:48;;;;;;;8.70;3.70;;;31.60;44.40;;;;;;5032608;28;20541;-85
2023/07/17 09:21:15;;;;;;;8.63;4.03;;;30.40;46.10;;;;;;5037865;28;20943;-86
2023/07/17 09:23:46;;;;;;;6.50;4.43;;;28.50;49.10;;;;;;5038251;28;20455;-86
2023/07/17 09:26:14;;;;;;;8.40;4.40;;;28.00;49.00;;;;;;5032667;28;20455;-84
2023/07/17 09:28:49;;;;;;;7.67;4.53;;;28.20;51.00;;;;;;5052827;28;20484;-83
2023/07/17 09:31:15;;;;;;;8.60;4.60;;;;;;;;;;5031516;28;20475;-84
2023/07/17 09:33:41;;;;;;;8.23;4.17;;;;;;;;;;5025551;28;20459;-85
2023/07/17 09:36:10;;;;;;;11.23;4.00;;;29.20;50.10;;;;;;5034084;28;20428;-83
2023/07/17 09:38:36;;;;;;;6.33;3.90;;;;;;;;;;5033868;28;20436;-86
2023/07/17 09:41:16;;;;;;;8.50;4.40;;;27.80;53.40;;;;;;5040540;28;20441;-83
2023/07/17 09:43:42;;;;;;;7.03;5.40;;;;;;;;;;5032420;28;20515;-85
2023/07/17 09:46:09;;;;;;;6.40;4.53;;;;;;;;;;5042191;28;21007;-84
2023/07/17 09:48:34;;;;;;;9.53;4.17;;;;;;;;;;5029393;28;22611;-83
2023/07/17 09:51:02;;;;;;;7.40;4.17;;;31.30;50.40;;;;;;5034833;28;20464;-84
2023/07/17 09:53:29;;;;;;;6.73;3.93;;;;;;;;;;5037276;28;20460;-84
2023/07/17 09:55:56;;;;;;;7.73;4.43;;;30.70;50.50;;;;;;5031137;28;20437;-84
2023/07/17 09:58:22;;;;;;;9.13;3.93;;;;;;;;;;5032403;28;20439;-82
2023/07/17 10:00:50;;;;;;;6.30;4.10;;;28.40;52.40;;;;;;5032661;28;20528;-86
2023/07/17 10:03:20;;;;;;;4.80;3.87;;;27.90;53.10;;;;;;5032821;28;20463;-85
2023/07/17 10:05:48;;;;;;;6.03;3.97;;;27.20;53.30;;;;;;5036371;28;20448;-85
2023/07/17 10:08:17;;;;;;;4.73;3.27;;;27.60;57.40;;;;;;5037167;28;20468;-86
2023/07/17 10:10:44;;;;;;;10.10;4.40;;;;;;;;;;5028340;28;21094;-86
2023/07/17 10:13:10;;;;;;;6.60;3.80;;;28.10;54.90;;;;;;5028388;28;20459;-87
2023/07/17 10:15:39;;;;;;;7.80;3.60;;;28.30;55.00;;;;;;5032303;28;22001;-85
2023/07/17 10:18:11;;;;;;;8.37;4.13;;;28.00;53.90;;;;;;5033252;28;20431;-87
2023/07/17 10:20:38;;;;;;;8.67;4.60;;;;;;;;;;5035072;28;20456;-83
2023/07/17 10:23:10;;;;;;;6.73;3.50;;;29.00;50.60;;;;;;5032515;28;20459;-84
2023/07/17 10:25:36;;;;;;;10.10;3.73;;;27.90;53.20;;;;;;5032482;28;22289;-84
2023/07/17 10:28:03;;;;;;;5.90;3.83;;;27.60;53.20;;;;;;5033583;28;20425;-85
2023/07/17 10:30:37;;;;;;;7.00;3.73;;;27.70;53.70;;;;;;5029858;28;20553;-86
2023/07/17 10:33:10;;;;;;;7.00;3.97;;;27.30;52.70;;;;;;5030494;28;20456;-86
2023/07/17 10:36:00;;;;;;;11.30;4.17;;;27.40;53.70;;;;;;5030193;28;20438;-85
2023/07/17 10:38:33;;;;;;;8.70;3.70;;;26.90;53.80;;;;;;5037201;28;20454;-87
2023/07/17 10:41:12;;;;;;;7.63;4.07;;;26.10;54.10;;;;;;5037035;28;20795;-85
2023/07/17 10:43:38;;;;;;;8.50;3.70;;;;;;;;;;5030140;28;20468;-84
2023/07/17 10:46:09;;;;;;;6.60;4.10;;;25.60;55.50;;;;;;5030912;28;20450;-86
2023/07/17 10:48:34;;;;;;;5.50;3.30;;;25.90;57.00;;;;;;5034014;28;20448;-84
2023/07/17 10:51:01;;;;;;;5.97;3.57;;;;;;;;;;5029557;28;20503;-84
2023/07/17 10:53:26;;;;;;;6.13;3.10;;;;;;;;;;5041046;28;20880;-86
2023/07/17 10:55:53;;;;;;;5.27;3.23;;;25.90;56.40;;;;;;5031905;28;20552;-85
2023/07/17 10:58:19;;;;;;;9.07;3.27;;;26.00;57.60;;;;;;5029329;28;20435;-86
2023/07/17 11:00:45;;;;;;;5.60;2.80;;;;;;;;;;5034744;28;20501;-86
2023/07/17 11:03:16;;;;;;;5.77;3.27;;;24.80;57.60;;;;;;5030030;28;20460;-85
2023/07/17 11:05:43;;;;;;;8.77;3.63;;;25.40;58.00;;;;;;5031219;28;20440;-86
2023/07/17 11:08:09;;;;;;;5.83;2.93;;;25.70;59.10;;;;;;5031755;28;20550;-85
2023/07/17 11:10:38;;;;;;;8.50;3.60;;;25.80;57.00;;;;;;5052450;28;20872;-87
2023/07/17 11:13:04;;;;;;;9.70;2.93;;;;;;;;;;5035278;28;20583;-86
2023/07/17 11:15:34;;;;;;;6.27;3.80;;;26.20;57.70;;;;;;5036027;28;20952;-84
2023/07/17 11:18:01;;;;;;;5.50;2.60;;;;;;;;;;5040813;28;20992;-85
2023/07/17 11:20:28;;;;;;;6.13;3.13;;;26.40;58.20;;;;;;5032872;28;20429;-86
2023/07/17 11:22:54;;;;;;;7.17;3.57;;;;;;;;;;5033542;28;20506;-86
2023/07/17 11:25:20;;;;;;;6.67;3.80;;;;;;;;;;5038378;28;20471;-86
2023/07/17 11:27:46;;;;;;;6.63;3.50;;;;;;;;;;5036764;28;20445;-86
2023/07/17 11:30:28;;;;;;;6.70;3.17;;;25.50;57.40;;;;;;5028487;28;20457;-85
2023/07/17 11:33:02;;;;;;;5.10;3.23;;;25.30;59.30;;;;;;5033154;28;20475;-86
2023/07/17 11:35:49;;;;;;;7.17;3.27;;;26.10;60.90;;;;;;5036007;28;20813;-85
2023/07/17 11:38:18;;;;;;;6.60;3.60;;;26.60;59.60;;;;;;5038582;28;20439;-87
2023/07/17 11:40:55;;;;;;;7.70;3.70;;;26.10;57.00;;;;;;5033871;28;20490;-86
2023/07/17 11:43:37;;;;;;;6.80;2.93;;;25.80;58.60;;;;;;5028807;28;20491;-86
2023/07/17 11:46:08;;;;;;;4.97;3.20;;;25.80;58.80;;;;;;5029460;28;20447;-85
2023/07/17 11:48:36;;;;;;;6.83;4.33;;;25.80;59.00;;;;;;5037417;28;20433;-82
2023/07/17 11:51:03;;;;;;;6.67;3.17;;;25.90;59.80;;;;;;5037400;28;21182;-84
2023/07/17 11:53:30;;;;;;;6.47;3.60;;;;;;;;;;5034943;28;20529;-84
2023/07/17 11:55:56;;;;;;;3.90;3.10;;;;;;;;;;5036146;28;20945;-84
2023/07/17 11:58:26;;;;;;;6.97;3.20;;;26.10;58.50;;;;;;5030504;28;20430;-85
2023/07/17 12:00:56;;;;;;;7.93;3.70;;;26.30;59.40;;;;;;5028944;28;20432;-84
2023/07/17 12:03:23;;;;;;;3.70;3.00;;;26.70;58.50;;;;;;5027830;28;20495;-84
2023/07/17 12:05:49;;;;;;;5.70;3.23;;;26.80;58.20;;;;;;5041122;28;20437;-85
2023/07/17 12:08:15;;;;;;;6.20;3.47;;;26.40;57.20;;;;;;5034035;28;20441;-85
2023/07/17 12:10:41;;;;;;;4.57;2.83;;;;;;;;;;5033475;28;20928;-84
2023/07/17 12:13:07;;;;;;;5.07;3.13;;;;;;;;;;5030445;28;20458;-85
2023/07/17 12:15:33;;;;;;;7.97;3.57;;;26.50;57.70;;;;;;5040995;28;20534;-84
2023/07/17 12:17:59;;;;;;;6.97;3.17;;;;;;;;;;5024849;28;20440;-86
2023/07/17 12:20:26;;;;;;;6.70;3.10;;;26.70;57.20;;;;;;5021961;28;20432;-87
2023/07/17 12:22:53;;;;;;;5.57;3.60;;;26.70;59.70;;;;;;5031562;28;20468;-86
2023/07/17 12:25:19;;;;;;;4.17;2.73;;;;;;;;;;5031723;28;20442;-86
2023/07/17 12:27:45;;;;;;;10.27;3.70;;;;;;;;;;5030940;28;20438;-83
2023/07/17 12:30:11;;;;;;;8.40;3.03;;;26.90;56.70;;;;;;5045783;28;20995;-86
2023/07/17 12:32:38;;;;;;;4.10;3.10;;;26.60;57.80;;;;;;5032904;28;20479;-87
2023/07/17 12:35:05;;;;;;;4.63;3.20;;;26.30;58.10;;;;;;5029437;28;20182;-86
2023/07/17 12:37:31;;;;;;;7.37;3.40;;;;;;;;;;5035681;28;20539;-88
2023/07/17 12:39:57;;;;;;;9.73;3.50;;;;;;;;;;5026331;28;20460;-84
2023/07/17 12:42:23;;;;;;;4.10;2.83;;;;;;;;;;5033574;28;20448;-85
2023/07/17 12:44:49;;;;;;;8.73;3.90;;;;;;;;;;5028792;28;20437;-86
2023/07/17 12:47:15;;;;;;;6.37;3.20;;;;;;;;;;5047331;28;20445;-85
2023/07/17 12:49:41;;;;;;;6.50;3.20;;;;;;;;;;5032812;28;20514;-86
2023/07/17 12:52:07;;;;;;;5.43;3.47;;;;;;;;;;5031078;28;20606;-86
2023/07/17 12:54:33;;;;;;;6.53;3.53;;;;;;;;;;5031358;28;20456;-86
2023/07/17 12:56:59;;;;;;;2.90;2.60;;;;;;;;;;5029027;28;20439;-85
2023/07/17 12:59:25;;;;;;;9.33;3.40;;;;;;;;;;5024850;28;20449;-84
2023/07/17 13:01:55;;;;;;;6.00;3.90;;;26.50;58.80;;;;;;5033839;28;20446;-87
2023/07/17 13:04:21;;;;;;;15.33;3.67;;;;;;;;;;5027981;28;20467;-86
2023/07/17 13:06:47;;;;;;;6.00;3.37;;;;;;;;;;5030409;28;20441;-86
2023/07/17 13:09:13;;;;;;;5.60;3.63;;;26.60;58.50;;;;;;5049970;28;21407;-87
2023/07/17 13:11:39;;;;;;;7.00;3.80;;;;;;;;;;5035880;28;20489;-87
2023/07/17 13:14:06;;;;;;;6.57;4.17;;;26.90;57.40;;;;;;5033042;28;20554;-85
2023/07/17 13:16:33;;;;;;;4.90;2.70;;;;;;;;;;5027094;28;20473;-85
2023/07/17 13:18:59;;;;;;;8.13;4.33;;;;;;;;;;5027140;28;20472;-87
2023/07/17 13:21:25;;;;;;;5.10;3.07;;;;;;;;;;5039483;28;21553;-87
2023/07/17 13:23:51;;;;;;;4.93;3.90;;;;;;;;;;5026151;28;20464;-86
2023/07/17 13:26:21;;;;;;;6.30;4.03;;;26.80;58.00;;;;;;5025378;28;20467;-86
2023/07/17 13:28:47;;;;;;;7.20;3.47;;;;;;;;;;5030984;28;20442;-85
2023/07/17 13:31:13;;;;;;;9.07;4.00;;;;;;;;;;5028432;28;20488;-86
2023/07/17 13:33:39;;;;;;;6.53;3.80;;;;;;;;;;5031955;28;20456;-85
2023/07/17 13:36:06;;;;;;;4.43;2.93;;;26.80;58.50;;;;;;5023992;28;20441;-87
2023/07/17 13:38:32;;;;;;;5.90;4.00;;;;;;;;;;5033639;28;20863;-84
2023/07/17 13:40:58;;;;;;;8.77;3.70;;;;;;;;;;5029972;28;20442;-84
2023/07/17 13:43:24;;;;;;;6.40;4.10;;;;;;;;;;5029945;28;21495;-86
2023/07/17 13:45:51;;;;;;;6.30;3.23;;;27.00;57.50;;;;;;5034781;28;20954;-85
2023/07/17 13:48:20;;;;;;;3.50;2.63;;;;;;;;;;5033639;28;20507;-88
2023/07/17 13:50:46;;;;;;;3.57;2.53;;;;;;;;;;5033085;28;21049;-86
2023/07/17 13:53:12;;;;;;;3.40;2.63;;;;;;;;;;5038913;28;20459;-88
2023/07/17 13:55:38;;;;;;;9.03;3.23;;;;;;;;;;5025935;28;20427;-87
2023/07/17 13:58:04;;;;;;;4.90;3.87;;;;;;;;;;5031146;28;20950;-86
2023/07/17 14:00:30;;;;;;;6.90;3.93;;;;;;;;;;5033459;28;20877;-85
2023/07/17 14:02:57;;;;;;;3.97;2.83;;;;;;;;;;5033265;28;20479;-86
2023/07/17 14:05:23;;;;;;;4.50;3.27;;;;;;;;;;5034418;28;20440;-86
2023/07/17 14:07:49;;;;;;;5.83;3.30;;;;;;;;;;5037432;28;20565;-86